createdAt,value
2019-05-18T00:03:15.464Z,74.34
2019-05-18T00:09:21.453Z,74.41
2019-05-18T00:15:27.417Z,74.38
2019-05-18T00:21:33.674Z,74.50
2019-05-18T00:27:39.567Z,74.47
2019-05-18T00:33:45.394Z,74.35
2019-05-18T00:39:51.116Z,74.46
2019-05-18T00:45:56.972Z,74.49
2019-05-18T00:52:02.917Z,74.39
2019-05-18T00:58:08.871Z,74.51
2019-05-18T01:04:14.729Z,74.34
2019-05-18T01:10:20.544Z,74.37
2019-05-18T01:16:28.314Z,74.33
2019-05-18T01:22:34.085Z,74.42
2019-05-18T01:28:39.939Z,74.48
2019-05-18T01:34:45.812Z,74.62
2019-05-18T01:40:51.546Z,74.66
2019-05-18T01:46:58.595Z,74.75
2019-05-18T01:53:04.869Z,74.86
2019-05-18T01:59:10.656Z,74.84
2019-05-18T02:05:16.863Z,74.69
2019-05-18T02:11:22.799Z,75.01
2019-05-18T02:17:28.562Z,75.15
2019-05-18T02:23:34.442Z,74.76
2019-05-18T02:29:40.193Z,74.26
2019-05-18T02:35:45.930Z,74.32
2019-05-18T02:41:51.704Z,74.28
2019-05-18T02:47:57.519Z,74.51
2019-05-18T02:54:03.367Z,74.53
2019-05-18T03:00:10.071Z,74.42
2019-05-18T03:06:15.882Z,74.78
2019-05-18T03:12:22.345Z,75.01
2019-05-18T03:18:28.306Z,75.07
2019-05-18T03:24:34.095Z,75.21
2019-05-18T03:30:39.953Z,74.91
2019-05-18T03:36:46.106Z,75.35
2019-05-18T03:42:52.158Z,75.39
2019-05-18T03:48:57.949Z,75.27
2019-05-18T03:55:03.917Z,75.07
2019-05-18T04:01:10.188Z,74.76
2019-05-18T04:07:16.044Z,74.60
2019-05-18T04:13:21.932Z,74.80
2019-05-18T04:19:44.790Z,74.66
2019-05-18T04:25:35.226Z,75.14
2019-05-18T04:31:40.987Z,75.08
2019-05-18T04:37:46.725Z,75.09
2019-05-18T04:43:52.809Z,75.43
2019-05-18T04:50:05.353Z,75.66
2019-05-18T04:56:06.566Z,75.57
2019-05-18T05:02:12.489Z,75.09
2019-05-18T05:08:18.341Z,74.45
2019-05-18T05:14:24.118Z,74.13
2019-05-18T05:20:30.029Z,74.14
2019-05-18T05:26:35.809Z,74.46
2019-05-18T05:32:41.593Z,74.49
2019-05-18T05:38:47.800Z,74.63
2019-05-18T05:44:53.684Z,75.03
2019-05-18T05:50:59.673Z,74.89
2019-05-18T05:57:05.733Z,74.06
2019-05-18T06:03:11.863Z,73.73
2019-05-18T06:09:17.772Z,73.65
2019-05-18T06:15:23.597Z,73.71
2019-05-18T06:21:29.908Z,73.68
2019-05-18T06:27:37.459Z,73.43
2019-05-18T06:33:43.739Z,73.50
2019-05-18T06:39:49.639Z,73.43
2019-05-18T06:45:55.831Z,73.22
2019-05-18T06:52:01.603Z,72.99
2019-05-18T06:58:07.742Z,73.14
2019-05-18T07:04:13.638Z,72.47
2019-05-18T07:10:19.555Z,71.81
2019-05-18T07:16:25.382Z,71.39
2019-05-18T07:22:32.433Z,71.22
2019-05-18T07:34:57.235Z,70.48
2019-05-18T07:41:03.167Z,69.25
2019-05-18T07:47:08.967Z,67.94
2019-05-18T07:53:15.131Z,67.28
2019-05-18T07:59:21.307Z,65.35
2019-05-18T08:05:27.119Z,62.19
2019-05-18T08:11:33.423Z,60.25
2019-05-18T08:17:40.895Z,59.30
2019-05-18T08:23:46.747Z,58.79
2019-05-18T08:29:52.919Z,58.84
2019-05-18T08:35:58.656Z,58.33
2019-05-18T08:42:04.430Z,57.21
2019-05-18T08:48:10.413Z,57.47
2019-05-18T08:54:16.192Z,57.27
2019-05-18T09:00:22.059Z,57.47
2019-05-18T09:06:28.052Z,57.09
2019-05-18T09:12:37.044Z,56.82
2019-05-18T09:18:42.862Z,56.52
2019-05-18T09:24:48.716Z,56.46
2019-05-18T09:30:54.523Z,55.73
2019-05-18T09:37:00.547Z,54.92
2019-05-18T09:43:06.437Z,54.96
2019-05-18T09:49:12.563Z,54.38
2019-05-18T09:55:18.522Z,53.17
2019-05-18T10:01:24.609Z,52.79
2019-05-18T10:07:30.412Z,52.22
2019-05-18T10:13:36.431Z,52.11
2019-05-18T10:19:42.475Z,50.65
2019-05-18T10:25:48.224Z,49.76
2019-05-18T10:31:54.248Z,50.32
2019-05-18T10:38:00.224Z,48.67
2019-05-18T10:44:05.946Z,48.95
2019-05-18T10:50:12.736Z,48.66
2019-05-18T10:56:19.688Z,46.93
2019-05-18T11:02:25.725Z,47.26
2019-05-18T11:08:32.077Z,45.80
2019-05-18T11:14:38.108Z,44.61
2019-05-18T11:20:44.071Z,43.15
2019-05-18T11:26:49.948Z,42.96
2019-05-18T11:32:55.681Z,41.69
2019-05-18T11:39:01.777Z,41.18
2019-05-18T11:45:09.853Z,39.82
2019-05-18T11:51:15.822Z,40.41
2019-05-18T11:57:23.347Z,40.03
2019-05-18T12:03:29.729Z,39.86
2019-05-18T12:09:35.610Z,39.54
2019-05-18T12:15:41.752Z,39.04
2019-05-18T12:21:47.653Z,39.15
2019-05-18T12:27:53.806Z,39.75
2019-05-18T12:34:01.552Z,39.48
2019-05-18T12:40:09.032Z,38.60
2019-05-18T12:46:15.463Z,37.50
2019-05-18T12:52:22.112Z,35.85
2019-05-18T12:58:28.182Z,36.77
2019-05-18T13:04:34.667Z,36.65
2019-05-18T13:10:41.149Z,35.89
2019-05-18T13:16:47.471Z,36.89
2019-05-18T13:22:54.124Z,36.15
2019-05-18T13:29:01.861Z,36.34
2019-05-18T13:35:08.556Z,34.74
2019-05-18T13:41:14.782Z,33.24
2019-05-18T13:47:21.051Z,32.98
2019-05-18T13:53:27.297Z,31.67
2019-05-18T13:59:33.551Z,32.39
2019-05-18T14:05:39.930Z,33.60
2019-05-18T14:11:46.066Z,34.62
2019-05-18T14:17:52.345Z,35.34
2019-05-18T14:23:58.664Z,34.95
2019-05-18T14:30:05.190Z,34.87
2019-05-18T14:36:11.287Z,35.19
2019-05-18T14:42:17.342Z,34.81
2019-05-18T14:48:23.521Z,34.26
2019-05-18T14:54:29.900Z,34.62
2019-05-18T15:00:36.003Z,35.60
2019-05-18T15:06:42.357Z,36.73
2019-05-18T15:12:48.706Z,37.11
2019-05-18T15:18:54.958Z,37.59
2019-05-18T15:25:01.023Z,37.99
2019-05-18T15:31:06.992Z,41.82
2019-05-18T15:37:12.990Z,44.19
2019-05-18T15:43:19.088Z,46.41
2019-05-18T15:49:25.086Z,50.47
2019-05-18T15:55:31.016Z,52.56
2019-05-18T16:01:37.347Z,53.09
2019-05-18T16:07:43.203Z,54.18
2019-05-18T16:13:49.135Z,56.77
2019-05-18T16:19:54.899Z,56.83
2019-05-18T16:26:00.678Z,56.54
2019-05-18T16:32:06.535Z,56.23
2019-05-18T16:38:13.017Z,57.53
2019-05-18T16:44:18.774Z,56.96
2019-05-18T16:50:24.598Z,56.18
2019-05-18T16:56:35.127Z,57.60
2019-05-18T17:02:37.946Z,61.37
2019-05-18T17:08:44.452Z,60.46
2019-05-18T17:14:50.328Z,58.99
2019-05-18T17:20:56.209Z,60.16
2019-05-18T17:27:01.999Z,59.81
2019-05-18T17:33:07.760Z,58.54
2019-05-18T17:39:13.515Z,58.76
2019-05-18T17:45:19.725Z,60.28
2019-05-18T17:51:25.515Z,58.97
2019-05-18T17:57:33.391Z,58.06
2019-05-18T18:03:39.245Z,60.11
2019-05-18T18:09:45.356Z,61.90
2019-05-18T18:15:51.355Z,62.19
2019-05-18T18:21:57.102Z,63.25
2019-05-18T18:28:02.931Z,64.22
2019-05-18T18:34:08.654Z,63.96
2019-05-18T18:40:14.418Z,64.27
2019-05-18T18:46:20.175Z,65.81
2019-05-18T18:52:26.267Z,67.02
2019-05-18T18:58:32.079Z,66.23
2019-05-18T19:04:38.006Z,65.77
2019-05-18T19:10:43.790Z,65.30
2019-05-18T19:16:49.745Z,66.60
2019-05-18T19:22:55.620Z,67.76
2019-05-18T19:29:01.617Z,67.75
2019-05-18T19:35:07.662Z,67.20
2019-05-18T19:41:13.507Z,67.09
2019-05-18T19:47:19.280Z,65.80
2019-05-18T19:53:25.078Z,65.85
2019-05-18T19:59:31.772Z,66.49
2019-05-18T20:05:39.832Z,66.06
2019-05-18T20:11:45.698Z,66.20
2019-05-18T20:17:51.547Z,66.32
2019-05-18T20:23:57.369Z,67.62
2019-05-18T20:30:03.193Z,68.43
2019-05-18T20:36:09.089Z,68.87
2019-05-18T20:42:14.992Z,68.87
2019-05-18T20:48:20.826Z,69.03
2019-05-18T20:54:26.977Z,69.38
2019-05-18T21:00:32.843Z,69.47
2019-05-18T21:06:39.104Z,69.30
2019-05-18T21:12:44.951Z,69.10
2019-05-18T21:18:50.818Z,69.04
2019-05-18T21:24:56.694Z,69.03
2019-05-18T21:31:02.655Z,69.44
2019-05-18T21:37:08.436Z,69.42
2019-05-18T21:43:14.476Z,69.13
2019-05-18T21:49:20.611Z,69.07
2019-05-18T21:55:26.432Z,69.13
2019-05-18T22:01:32.683Z,69.39
2019-05-18T22:07:39.437Z,69.38
2019-05-18T22:13:45.321Z,68.95
2019-05-18T22:19:51.238Z,68.92
2019-05-18T22:25:57.347Z,68.87
2019-05-18T22:32:03.488Z,69.24
2019-05-18T22:38:09.739Z,69.05
2019-05-18T22:44:15.725Z,69.59
2019-05-18T22:50:21.843Z,70.07
2019-05-18T22:56:27.717Z,69.67
2019-05-18T23:02:33.840Z,70.69
2019-05-18T23:08:40.155Z,70.89
2019-05-18T23:14:46.246Z,71.95
2019-05-18T23:20:52.131Z,72.41
2019-05-18T23:26:57.915Z,72.51
2019-05-18T23:33:04.100Z,72.76
2019-05-18T23:39:09.965Z,73.16
2019-05-18T23:45:16.094Z,73.46
2019-05-18T23:51:22.348Z,73.32
2019-05-18T23:57:28.294Z,73.29
